createdAt,value
2023-04-30T00:00:10.641Z,2.83
2023-04-30T00:02:38.502Z,2.85
2023-04-30T00:05:07.614Z,2.87
2023-04-30T00:07:34.842Z,2.84
2023-04-30T00:10:02.788Z,2.82
2023-04-30T00:12:29.996Z,2.81
2023-04-30T00:14:57.508Z,2.81
2023-04-30T00:17:25.345Z,2.79
2023-04-30T00:19:52.888Z,2.77
2023-04-30T00:22:23.155Z,2.72
2023-04-30T00:24:50.434Z,2.64
2023-04-30T00:27:17.471Z,2.55
2023-04-30T00:29:44.713Z,2.46
2023-04-30T00:32:11.732Z,2.39
2023-04-30T00:34:38.569Z,2.33
2023-04-30T00:37:05.907Z,2.25
2023-04-30T00:39:33.547Z,2.23
2023-04-30T00:42:01.269Z,2.19
2023-04-30T00:44:28.551Z,2.18
2023-04-30T00:46:56.429Z,2.21
2023-04-30T00:49:23.924Z,2.26
2023-04-30T00:51:51.681Z,2.29
2023-04-30T00:54:21.434Z,2.32
2023-04-30T00:56:49.602Z,2.31
2023-04-30T00:59:17.754Z,2.29
2023-04-30T01:01:45.808Z,2.27
2023-04-30T01:04:13.336Z,2.27
2023-04-30T01:06:41.286Z,2.26
2023-04-30T01:09:08.664Z,2.27
2023-04-30T01:11:50.441Z,2.26
2023-04-30T01:14:21.810Z,2.23
2023-04-30T01:17:01.572Z,2.19
2023-04-30T01:19:44.905Z,2.17
2023-04-30T01:22:26.987Z,2.17
2023-04-30T01:25:31.628Z,2.15
2023-04-30T01:28:16.182Z,2.09
2023-04-30T01:30:47.036Z,2.07
2023-04-30T01:33:15.050Z,2.03
2023-04-30T01:35:51.338Z,1.96
2023-04-30T01:38:40.330Z,1.88
2023-04-30T01:41:21.748Z,1.82
2023-04-30T01:44:40.164Z,1.80
2023-04-30T01:47:24.700Z,1.72
2023-04-30T01:50:20.105Z,1.70
2023-04-30T01:52:52.809Z,1.71
2023-04-30T01:55:54.646Z,1.64
2023-04-30T01:58:24.316Z,1.54
2023-04-30T02:00:52.194Z,1.52
2023-04-30T02:03:19.644Z,1.50
2023-04-30T02:05:48.449Z,1.46
2023-04-30T02:08:15.623Z,1.42
2023-04-30T02:10:42.904Z,1.40
2023-04-30T02:13:10.425Z,1.41
2023-04-30T02:15:37.831Z,1.46
2023-04-30T02:18:08.083Z,1.51
2023-04-30T02:20:35.295Z,1.54
2023-04-30T02:23:03.680Z,1.53
2023-04-30T02:25:33.963Z,1.52
2023-04-30T02:28:01.510Z,1.51
2023-04-30T02:30:30.278Z,1.49
2023-04-30T02:32:58.119Z,1.48
2023-04-30T02:35:26.755Z,1.48
2023-04-30T02:37:54.267Z,1.48
2023-04-30T02:40:21.966Z,1.47
2023-04-30T02:42:49.943Z,1.45
2023-04-30T02:45:17.898Z,1.44
2023-04-30T02:47:45.415Z,1.44
2023-04-30T02:50:13.143Z,1.45
2023-04-30T02:52:42.333Z,1.47
2023-04-30T02:55:10.735Z,1.50
2023-04-30T02:57:38.360Z,1.53
2023-04-30T03:00:07.608Z,1.58
2023-04-30T03:02:36.970Z,1.62
2023-04-30T03:05:05.885Z,1.67
2023-04-30T03:07:36.481Z,1.71
2023-04-30T03:10:05.865Z,1.78
2023-04-30T03:12:34.005Z,1.85
2023-04-30T03:15:01.940Z,1.89
2023-04-30T03:17:29.944Z,1.96
2023-04-30T03:19:58.867Z,2.03
2023-04-30T03:22:28.527Z,2.10
2023-04-30T03:24:56.218Z,2.17
2023-04-30T03:27:24.299Z,2.25
2023-04-30T03:29:53.790Z,2.35
2023-04-30T03:32:22.088Z,2.45
2023-04-30T03:34:51.816Z,2.57
2023-04-30T03:37:21.720Z,2.68
2023-04-30T03:39:49.952Z,2.80
2023-04-30T03:42:17.498Z,2.95
2023-04-30T03:44:45.772Z,3.08
2023-04-30T03:47:13.683Z,3.23
2023-04-30T03:49:42.044Z,3.46
2023-04-30T03:52:09.753Z,3.70
2023-04-30T03:54:37.646Z,4.02
2023-04-30T03:57:05.952Z,4.33
2023-04-30T03:59:33.524Z,4.66
2023-04-30T04:02:06.618Z,5.04
2023-04-30T04:04:34.923Z,5.37
2023-04-30T04:07:03.923Z,5.70
2023-04-30T04:09:31.887Z,6.06
2023-04-30T04:12:00.075Z,6.48
2023-04-30T04:14:28.249Z,6.93
2023-04-30T04:16:58.461Z,7.43
2023-04-30T04:19:29.886Z,7.99
2023-04-30T04:21:58.366Z,8.57
2023-04-30T04:24:27.577Z,9.16
2023-04-30T04:26:56.372Z,9.86
2023-04-30T04:29:24.637Z,10.62
2023-04-30T04:31:53.697Z,11.45
2023-04-30T04:34:23.271Z,12.25
2023-04-30T04:36:51.465Z,12.97
2023-04-30T04:39:20.762Z,13.71
2023-04-30T04:41:48.989Z,14.31
2023-04-30T04:44:18.732Z,14.61
2023-04-30T04:46:47.817Z,14.43
2023-04-30T04:49:17.680Z,14.13
2023-04-30T04:51:45.720Z,13.61
2023-04-30T04:54:14.705Z,13.41
2023-04-30T04:56:43.032Z,13.29
2023-04-30T04:59:12.552Z,13.22
2023-04-30T05:01:40.253Z,13.17
2023-04-30T05:04:10.264Z,13.05
2023-04-30T05:06:38.904Z,12.88
2023-04-30T05:09:10.890Z,13.08
2023-04-30T05:11:42.122Z,13.32
2023-04-30T05:14:09.660Z,13.51
2023-04-30T05:16:37.635Z,13.40
2023-04-30T05:19:04.988Z,13.43
2023-04-30T05:21:32.376Z,13.41
2023-04-30T05:23:59.885Z,13.69
2023-04-30T05:26:27.368Z,13.86
2023-04-30T05:28:55.004Z,13.85
2023-04-30T05:31:22.417Z,13.98
2023-04-30T05:33:50.040Z,14.02
2023-04-30T05:36:17.520Z,13.90
2023-04-30T05:38:44.760Z,13.63
2023-04-30T05:41:13.171Z,13.90
2023-04-30T05:43:40.631Z,13.67
2023-04-30T05:46:08.368Z,13.64
2023-04-30T05:48:35.993Z,13.82
2023-04-30T05:51:03.337Z,13.72
2023-04-30T05:53:30.833Z,13.49
2023-04-30T05:55:57.759Z,13.63
2023-04-30T05:58:26.329Z,13.54
2023-04-30T06:00:54.976Z,13.47
2023-04-30T06:03:22.885Z,13.60
2023-04-30T06:05:50.548Z,13.75
2023-04-30T06:08:18.237Z,13.59
2023-04-30T06:10:45.480Z,13.91
2023-04-30T06:13:12.802Z,14.01
2023-04-30T06:15:40.104Z,13.83
2023-04-30T06:18:07.948Z,13.60
2023-04-30T06:20:35.339Z,13.63
2023-04-30T06:23:06.792Z,13.92
2023-04-30T06:25:34.170Z,13.97
2023-04-30T06:28:01.672Z,14.18
2023-04-30T06:30:30.573Z,14.11
2023-04-30T06:32:57.700Z,14.20
2023-04-30T06:35:24.608Z,14.55
2023-04-30T06:37:52.018Z,14.29
2023-04-30T06:40:20.962Z,14.35
2023-04-30T06:42:48.008Z,14.16
2023-04-30T06:45:15.570Z,14.11
2023-04-30T06:47:43.114Z,14.26
2023-04-30T06:50:11.137Z,14.13
2023-04-30T06:52:38.994Z,14.53
2023-04-30T06:55:07.144Z,14.98
2023-04-30T06:57:34.141Z,15.34
2023-04-30T07:00:02.733Z,15.21
2023-04-30T07:02:30.107Z,15.61
2023-04-30T07:04:58.263Z,15.65
2023-04-30T07:07:25.657Z,15.89
2023-04-30T07:09:54.158Z,16.13
2023-04-30T07:12:22.755Z,15.77
2023-04-30T07:14:50.048Z,15.88
2023-04-30T07:17:17.017Z,15.57
2023-04-30T07:19:44.098Z,16.13
2023-04-30T07:22:11.682Z,16.04
2023-04-30T07:24:38.775Z,15.89
2023-04-30T07:27:07.496Z,15.90
2023-04-30T07:29:35.477Z,16.36
2023-04-30T07:32:03.483Z,15.77
2023-04-30T07:34:30.532Z,15.76
2023-04-30T07:36:57.576Z,15.65
2023-04-30T07:39:24.529Z,15.48
2023-04-30T07:41:51.589Z,14.96
2023-04-30T07:44:19.098Z,15.01
2023-04-30T07:46:46.975Z,14.70
2023-04-30T07:49:14.253Z,14.89
2023-04-30T07:51:43.331Z,15.01
2023-04-30T07:54:11.066Z,14.85
2023-04-30T07:56:38.296Z,15.19
2023-04-30T07:59:06.053Z,15.24
2023-04-30T08:01:33.477Z,15.47
2023-04-30T08:04:00.913Z,15.90
2023-04-30T08:06:28.001Z,15.61
2023-04-30T08:08:55.460Z,16.04
2023-04-30T08:11:22.884Z,15.64
2023-04-30T08:13:50.343Z,15.74
2023-04-30T08:16:17.854Z,15.79
2023-04-30T08:18:46.823Z,15.73
2023-04-30T08:21:14.547Z,15.88
2023-04-30T08:23:41.622Z,16.24
2023-04-30T08:26:09.134Z,16.37
2023-04-30T08:28:39.307Z,16.28
2023-04-30T08:31:06.422Z,16.17
2023-04-30T08:33:33.681Z,16.16
2023-04-30T08:36:03.997Z,16.53
2023-04-30T08:38:30.964Z,16.60
2023-04-30T08:41:13.621Z,16.40
2023-04-30T08:43:41.628Z,16.14
2023-04-30T08:46:09.676Z,16.05
2023-04-30T08:48:37.203Z,15.95
2023-04-30T08:51:04.764Z,16.11
2023-04-30T08:53:36.201Z,15.58
2023-04-30T08:56:06.994Z,15.67
2023-04-30T08:58:34.369Z,15.51
2023-04-30T09:01:03.390Z,15.76
2023-04-30T09:03:31.740Z,15.65
2023-04-30T09:05:58.759Z,15.44
2023-04-30T09:08:43.129Z,15.54
2023-04-30T09:11:28.590Z,15.37
2023-04-30T09:13:58.306Z,15.35
2023-04-30T09:16:28.264Z,15.71
2023-04-30T09:18:56.890Z,15.98
2023-04-30T09:21:34.788Z,16.11
2023-04-30T09:24:04.623Z,16.32
2023-04-30T09:26:37.970Z,16.59
2023-04-30T09:29:10.327Z,16.00
2023-04-30T09:31:39.195Z,15.87
2023-04-30T09:34:07.334Z,16.31
2023-04-30T09:36:35.381Z,17.11
2023-04-30T09:39:15.535Z,17.36
2023-04-30T09:41:43.829Z,17.43
2023-04-30T09:44:30.195Z,17.18
2023-04-30T09:46:59.525Z,17.53
2023-04-30T09:49:27.896Z,17.38
2023-04-30T09:52:00.202Z,17.35
2023-04-30T09:54:29.605Z,17.40
2023-04-30T09:56:58.724Z,16.86
2023-04-30T09:59:35.534Z,17.51
2023-04-30T10:02:05.110Z,17.28
2023-04-30T10:04:42.276Z,17.57
2023-04-30T10:07:15.672Z,17.62
2023-04-30T10:10:05.281Z,17.41
2023-04-30T10:12:44.962Z,17.50
2023-04-30T10:15:17.831Z,17.36
2023-04-30T10:17:50.954Z,17.24
2023-04-30T10:20:23.949Z,17.23
2023-04-30T10:22:53.115Z,17.46
2023-04-30T10:25:20.259Z,17.64
2023-04-30T10:27:51.367Z,18.08
2023-04-30T10:30:19.086Z,18.26
2023-04-30T10:32:58.450Z,18.35
2023-04-30T10:35:41.781Z,17.38
2023-04-30T10:38:27.089Z,16.75
2023-04-30T10:40:59.471Z,17.36
2023-04-30T10:43:27.716Z,17.13
2023-04-30T10:45:57.377Z,17.24
2023-04-30T10:48:26.390Z,16.91
2023-04-30T10:50:56.844Z,17.28
2023-04-30T10:53:26.418Z,16.98
2023-04-30T10:55:58.646Z,17.44
2023-04-30T10:58:34.795Z,17.83
2023-04-30T11:01:15.955Z,18.20
2023-04-30T11:04:04.228Z,18.67
2023-04-30T11:06:57.062Z,19.39
2023-04-30T11:09:44.508Z,19.56
2023-04-30T11:12:11.962Z,19.93
2023-04-30T11:14:46.689Z,19.87
2023-04-30T11:17:23.845Z,20.04
2023-04-30T11:19:53.733Z,19.78
2023-04-30T11:22:24.916Z,19.60
2023-04-30T11:25:06.094Z,19.82
2023-04-30T11:27:35.369Z,19.93
2023-04-30T11:30:05.873Z,19.45
2023-04-30T11:32:35.744Z,19.89
2023-04-30T11:35:05.023Z,20.15
2023-04-30T11:37:40.478Z,20.46
2023-04-30T11:40:11.266Z,20.05
2023-04-30T11:42:40.831Z,20.31
2023-04-30T11:45:11.356Z,20.51
2023-04-30T11:47:41.741Z,20.16
2023-04-30T11:50:12.142Z,20.28
2023-04-30T11:52:40.655Z,20.43
2023-04-30T11:55:18.619Z,20.68
2023-04-30T11:57:49.078Z,20.15
2023-04-30T12:00:22.465Z,20.26
2023-04-30T12:02:51.009Z,20.65
2023-04-30T12:05:21.006Z,20.98
2023-04-30T12:07:58.439Z,20.80
2023-04-30T12:10:26.156Z,20.87
2023-04-30T12:12:54.968Z,21.24
2023-04-30T12:15:27.388Z,21.28
2023-04-30T12:17:59.666Z,21.36
2023-04-30T12:20:29.059Z,21.60
2023-04-30T12:22:57.091Z,21.60
2023-04-30T12:25:25.124Z,21.59
2023-04-30T12:27:53.822Z,21.37
2023-04-30T12:30:24.271Z,21.18
2023-04-30T12:32:53.426Z,21.35
2023-04-30T12:35:25.338Z,21.41
2023-04-30T12:38:03.094Z,21.52
2023-04-30T12:40:30.905Z,21.12
2023-04-30T12:43:06.805Z,21.26
2023-04-30T12:46:06.986Z,21.23
2023-04-30T12:48:47.844Z,21.18
2023-04-30T12:51:20.624Z,21.05
2023-04-30T12:53:48.483Z,20.77
2023-04-30T12:56:18.377Z,20.74
2023-04-30T12:58:51.391Z,20.63
2023-04-30T13:01:22.050Z,20.25
2023-04-30T13:03:50.008Z,20.11
2023-04-30T13:06:18.174Z,19.80
2023-04-30T13:08:58.010Z,19.83
2023-04-30T13:11:27.301Z,19.77
2023-04-30T13:13:57.991Z,19.76
2023-04-30T13:16:26.202Z,19.63
2023-04-30T13:18:53.764Z,19.75
2023-04-30T13:21:21.948Z,19.80
2023-04-30T13:23:53.546Z,20.20
2023-04-30T13:26:23.701Z,20.84
2023-04-30T13:28:51.725Z,21.37
2023-04-30T13:31:18.984Z,22.22
2023-04-30T13:33:46.567Z,22.97
2023-04-30T13:36:13.788Z,23.59
2023-04-30T13:38:41.965Z,24.13
2023-04-30T13:41:09.670Z,24.50
2023-04-30T13:43:41.489Z,24.70
2023-04-30T13:46:09.825Z,24.48
2023-04-30T13:48:40.184Z,24.51
2023-04-30T13:51:08.286Z,24.18
2023-04-30T13:53:37.250Z,24.28
2023-04-30T13:56:04.762Z,23.92
2023-04-30T13:58:32.446Z,23.60
2023-04-30T14:00:59.938Z,23.41
2023-04-30T14:03:27.378Z,22.85
2023-04-30T14:05:55.701Z,21.79
2023-04-30T14:08:23.549Z,21.19
2023-04-30T14:10:50.814Z,21.15
2023-04-30T14:13:18.119Z,21.03
2023-04-30T14:15:45.522Z,21.16
2023-04-30T14:18:13.623Z,20.62
2023-04-30T14:20:41.447Z,20.60
2023-04-30T14:23:09.276Z,20.79
2023-04-30T14:25:36.989Z,20.64
2023-04-30T14:28:04.292Z,20.63
2023-04-30T14:30:31.773Z,20.56
2023-04-30T14:32:59.266Z,20.05
2023-04-30T14:35:27.404Z,19.95
2023-04-30T14:37:54.617Z,19.37
2023-04-30T14:40:22.014Z,19.43
2023-04-30T14:42:50.961Z,19.35
2023-04-30T14:45:18.246Z,19.34
2023-04-30T14:47:45.852Z,18.50
2023-04-30T14:50:13.616Z,17.82
2023-04-30T14:52:42.455Z,17.77
2023-04-30T14:55:09.839Z,17.81
2023-04-30T14:57:37.980Z,17.84
2023-04-30T15:00:07.020Z,17.62
2023-04-30T15:02:34.370Z,17.52
2023-04-30T15:05:01.413Z,17.40
2023-04-30T15:07:28.932Z,17.54
2023-04-30T15:09:57.103Z,17.17
2023-04-30T15:12:24.594Z,17.03
2023-04-30T15:14:52.807Z,16.83
2023-04-30T15:17:21.831Z,16.54
2023-04-30T15:19:49.593Z,16.24
2023-04-30T15:22:17.594Z,16.34
2023-04-30T15:24:46.214Z,16.63
2023-04-30T15:27:14.387Z,16.32
2023-04-30T15:29:42.091Z,16.44
2023-04-30T15:32:09.500Z,16.39
2023-04-30T15:34:36.654Z,16.41
2023-04-30T15:37:04.462Z,16.05
2023-04-30T15:39:32.129Z,16.03
2023-04-30T15:41:59.682Z,15.75
2023-04-30T15:44:27.214Z,15.92
2023-04-30T15:46:54.508Z,16.03
2023-04-30T15:49:23.876Z,15.96
2023-04-30T15:51:52.931Z,15.93
2023-04-30T15:54:23.960Z,16.05
2023-04-30T15:56:52.352Z,15.96
2023-04-30T15:59:23.236Z,16.25
2023-04-30T16:01:51.309Z,16.37
2023-04-30T16:04:19.098Z,16.25
2023-04-30T16:06:47.167Z,16.28
2023-04-30T16:09:17.502Z,16.32
2023-04-30T16:11:44.728Z,16.32
2023-04-30T16:14:12.716Z,16.29
2023-04-30T16:16:40.411Z,16.23
2023-04-30T16:19:08.485Z,16.13
2023-04-30T16:21:38.754Z,16.00
2023-04-30T16:24:09.108Z,15.76
2023-04-30T16:26:39.917Z,15.81
2023-04-30T16:29:08.006Z,15.75
2023-04-30T16:31:36.893Z,15.65
2023-04-30T16:34:06.191Z,15.55
2023-04-30T16:36:35.262Z,15.43
2023-04-30T16:39:04.799Z,15.34
2023-04-30T16:41:31.980Z,15.22
2023-04-30T16:43:59.667Z,15.09
2023-04-30T16:46:28.192Z,14.98
2023-04-30T16:48:58.329Z,14.83
2023-04-30T16:51:27.200Z,14.61
2023-04-30T16:53:54.694Z,14.50
2023-04-30T16:56:21.994Z,14.31
2023-04-30T16:58:49.727Z,14.18
2023-04-30T17:01:16.829Z,14.02
2023-04-30T17:03:44.985Z,13.85
2023-04-30T17:06:14.544Z,13.66
2023-04-30T17:08:42.197Z,13.55
2023-04-30T17:11:09.561Z,13.36
2023-04-30T17:13:37.933Z,13.19
2023-04-30T17:16:07.546Z,13.09
2023-04-30T17:18:35.359Z,13.02
2023-04-30T17:21:03.205Z,12.92
2023-04-30T17:23:31.899Z,12.80
2023-04-30T17:26:02.214Z,12.68
2023-04-30T17:28:33.200Z,12.52
2023-04-30T17:31:07.350Z,12.37
2023-04-30T17:33:36.355Z,12.19
2023-04-30T17:36:07.685Z,12.01
2023-04-30T17:38:36.181Z,11.88
2023-04-30T17:41:04.198Z,11.72
2023-04-30T17:43:31.799Z,11.58
2023-04-30T17:45:59.593Z,11.40
2023-04-30T17:48:27.577Z,11.24
2023-04-30T17:50:55.424Z,11.09
2023-04-30T17:53:22.973Z,10.97
2023-04-30T17:55:50.221Z,10.79
2023-04-30T17:58:17.764Z,10.61
2023-04-30T18:00:45.636Z,10.42
2023-04-30T18:03:13.264Z,10.21
2023-04-30T18:05:40.135Z,10.04
2023-04-30T18:08:08.294Z,9.84
2023-04-30T18:10:35.460Z,9.65
2023-04-30T18:13:02.967Z,9.48
2023-04-30T18:15:30.296Z,9.30
2023-04-30T18:17:59.363Z,9.11
2023-04-30T18:20:26.789Z,8.97
2023-04-30T18:22:54.244Z,8.87
2023-04-30T18:25:22.664Z,8.75
2023-04-30T18:27:50.370Z,8.63
2023-04-30T18:30:17.783Z,8.48
2023-04-30T18:32:45.376Z,8.40
2023-04-30T18:35:12.898Z,8.33
2023-04-30T18:37:40.123Z,8.24
2023-04-30T18:40:07.614Z,8.11
2023-04-30T18:42:35.233Z,7.99
2023-04-30T18:45:02.470Z,7.87
2023-04-30T18:47:31.176Z,7.76
2023-04-30T18:49:58.786Z,7.65
2023-04-30T18:52:26.197Z,7.61
2023-04-30T18:54:53.824Z,7.56
2023-04-30T18:57:24.482Z,7.49
2023-04-30T18:59:51.897Z,7.42
2023-04-30T19:02:18.923Z,7.36
2023-04-30T19:04:46.624Z,7.28
2023-04-30T19:07:14.455Z,7.23
2023-04-30T19:09:42.026Z,7.18
2023-04-30T19:12:10.788Z,7.14
2023-04-30T19:14:38.168Z,7.11
2023-04-30T19:17:06.383Z,7.07
2023-04-30T19:19:33.918Z,7.04
2023-04-30T19:22:01.640Z,7.00
2023-04-30T19:24:29.474Z,6.95
2023-04-30T19:26:57.222Z,6.88
2023-04-30T19:29:24.816Z,6.82
2023-04-30T19:31:52.101Z,6.72
2023-04-30T19:34:19.129Z,6.60
2023-04-30T19:36:46.393Z,6.45
2023-04-30T19:39:14.247Z,6.30
2023-04-30T19:41:41.027Z,6.14
2023-04-30T19:44:08.362Z,6.01
2023-04-30T19:46:36.053Z,5.89
2023-04-30T19:49:04.450Z,5.80
2023-04-30T19:51:32.307Z,5.69
2023-04-30T19:53:59.500Z,5.56
2023-04-30T19:56:27.083Z,5.50
2023-04-30T19:58:54.661Z,5.43
2023-04-30T20:01:22.495Z,5.43
2023-04-30T20:03:50.077Z,5.45
2023-04-30T20:06:17.191Z,5.45
2023-04-30T20:08:44.642Z,5.43
2023-04-30T20:11:12.290Z,5.42
2023-04-30T20:13:40.051Z,5.44
2023-04-30T20:16:12.730Z,5.41
2023-04-30T20:18:39.805Z,5.38
2023-04-30T20:21:07.486Z,5.32
2023-04-30T20:23:34.508Z,5.35
2023-04-30T20:26:02.500Z,5.40
2023-04-30T20:28:31.014Z,5.44
2023-04-30T20:30:58.299Z,5.46
2023-04-30T20:33:26.863Z,5.50
2023-04-30T20:35:54.517Z,5.52
2023-04-30T20:38:22.265Z,5.53
2023-04-30T20:40:49.875Z,5.59
2023-04-30T20:43:17.585Z,5.63
2023-04-30T20:45:45.692Z,5.63
2023-04-30T20:48:13.361Z,5.61
2023-04-30T20:50:40.831Z,5.63
2023-04-30T20:53:10.363Z,5.63
2023-04-30T20:55:38.495Z,5.61
2023-04-30T20:58:05.904Z,5.55
2023-04-30T21:00:33.428Z,5.47
2023-04-30T21:03:01.041Z,5.38
2023-04-30T21:05:30.348Z,5.29
2023-04-30T21:08:01.701Z,5.20
2023-04-30T21:10:36.732Z,5.12
2023-04-30T21:13:05.928Z,5.03
2023-04-30T21:15:36.369Z,4.98
2023-04-30T21:18:04.115Z,4.86
2023-04-30T21:20:32.046Z,4.77
2023-04-30T21:22:59.502Z,4.71
2023-04-30T21:25:26.750Z,4.64
2023-04-30T21:27:53.962Z,4.55
2023-04-30T21:30:25.024Z,4.46
2023-04-30T21:32:58.365Z,4.38
2023-04-30T21:35:28.007Z,4.27
2023-04-30T21:37:55.528Z,4.21
2023-04-30T21:40:22.775Z,4.15
2023-04-30T21:42:50.062Z,4.11
2023-04-30T21:45:17.192Z,4.03
2023-04-30T21:47:45.054Z,3.96
2023-04-30T21:50:12.656Z,3.96
2023-04-30T21:52:39.777Z,3.98
2023-04-30T21:55:08.155Z,3.98
2023-04-30T21:57:35.686Z,3.98
2023-04-30T22:00:04.760Z,4.00
2023-04-30T22:02:33.234Z,4.04
2023-04-30T22:05:00.039Z,4.05
2023-04-30T22:07:28.327Z,4.10
2023-04-30T22:09:55.854Z,4.14
2023-04-30T22:12:25.375Z,4.15
2023-04-30T22:14:53.812Z,4.17
2023-04-30T22:17:21.885Z,4.17
2023-04-30T22:19:49.446Z,4.19
2023-04-30T22:22:16.802Z,4.20
2023-04-30T22:24:43.904Z,4.13
2023-04-30T22:27:11.641Z,4.06
2023-04-30T22:29:38.525Z,3.97
2023-04-30T22:32:07.697Z,3.92
2023-04-30T22:34:40.568Z,3.85
2023-04-30T22:37:08.397Z,3.77
2023-04-30T22:39:37.443Z,3.61
2023-04-30T22:42:06.210Z,3.56
2023-04-30T22:44:34.303Z,3.51
2023-04-30T22:47:02.308Z,3.51
2023-04-30T22:49:32.249Z,3.56
2023-04-30T22:52:00.381Z,3.61
2023-04-30T22:54:27.659Z,3.60
2023-04-30T22:56:55.273Z,3.60
2023-04-30T22:59:22.443Z,3.59
2023-04-30T23:01:49.878Z,3.63
2023-04-30T23:04:16.867Z,3.66
2023-04-30T23:06:44.357Z,3.69
2023-04-30T23:09:12.866Z,3.70
2023-04-30T23:11:39.882Z,3.71
2023-04-30T23:14:07.069Z,3.75
2023-04-30T23:16:34.787Z,3.78
2023-04-30T23:19:01.612Z,3.78
2023-04-30T23:21:29.063Z,3.83
2023-04-30T23:23:57.649Z,3.95
2023-04-30T23:26:25.104Z,4.10
2023-04-30T23:28:53.822Z,4.29
2023-04-30T23:31:21.361Z,4.49
2023-04-30T23:33:48.877Z,4.66
2023-04-30T23:36:16.543Z,4.83
2023-04-30T23:38:43.945Z,5.03
2023-04-30T23:41:11.436Z,5.26
2023-04-30T23:43:38.751Z,5.50
2023-04-30T23:46:06.305Z,5.71
2023-04-30T23:48:34.492Z,5.88
2023-04-30T23:51:03.277Z,6.04
2023-04-30T23:53:31.592Z,6.16
2023-04-30T23:55:59.284Z,6.25
2023-04-30T23:58:27.272Z,6.36
